sensor_id;sensor_type;location;lat;lon;timestamp;pressure;altitude;pressure_sealevel;temperature;humidity
33286;BME280;19656;50.096;20.014;2023-02-10T00:08:34;100734.27;;;0.53;50.58
33286;BME280;19656;50.096;20.014;2023-02-10T00:26:57;100743.98;;;0.42;50.61
33286;BME280;19656;50.096;20.014;2023-02-10T00:32:35;100744.63;;;0.34;50.50
33286;BME280;19656;50.096;20.014;2023-02-10T00:38:56;100754.87;;;0.26;50.56
33286;BME280;19656;50.096;20.014;2023-02-10T00:44:50;100751.55;;;0.03;50.87
33286;BME280;19656;50.096;20.014;2023-02-10T00:50:34;100756.52;;;-0.05;51.03
33286;BME280;19656;50.096;20.014;2023-02-10T01:03:30;100761.71;;;-0.28;51.46
33286;BME280;19656;50.096;20.014;2023-02-10T01:09:45;100748.24;;;-0.33;51.43
33286;BME280;19656;50.096;20.014;2023-02-10T01:34:20;100724.39;;;-0.49;51.59
33286;BME280;19656;50.096;20.014;2023-02-10T03:45:29;100692.48;;;-0.99;54.09
33286;BME280;19656;50.096;20.014;2023-02-10T03:50:33;100693.84;;;-0.87;53.11
33286;BME280;19656;50.096;20.014;2023-02-10T03:55:37;100693.48;;;-0.87;52.81
33286;BME280;19656;50.096;20.014;2023-02-10T04:00:40;100695.05;;;-0.88;52.65
33286;BME280;19656;50.096;20.014;2023-02-10T04:05:43;100695.80;;;-0.83;52.88
33286;BME280;19656;50.096;20.014;2023-02-10T04:10:47;100696.23;;;-0.75;52.82
33286;BME280;19656;50.096;20.014;2023-02-10T04:16:00;100699.60;;;-0.68;53.18
33286;BME280;19656;50.096;20.014;2023-02-10T04:21:06;100700.19;;;-0.64;52.28
33286;BME280;19656;50.096;20.014;2023-02-10T04:26:10;100701.70;;;-0.68;52.10
33286;BME280;19656;50.096;20.014;2023-02-10T04:31:13;100698.06;;;-0.66;52.02
33286;BME280;19656;50.096;20.014;2023-02-10T04:36:16;100700.99;;;-0.68;52.13
33286;BME280;19656;50.096;20.014;2023-02-10T04:41:20;100710.02;;;-0.72;52.00
33286;BME280;19656;50.096;20.014;2023-02-10T04:46:23;100722.09;;;-0.83;52.22
33286;BME280;19656;50.096;20.014;2023-02-10T04:51:26;100724.48;;;-0.89;52.73
33286;BME280;19656;50.096;20.014;2023-02-10T04:56:29;100727.19;;;-0.80;53.07
33286;BME280;19656;50.096;20.014;2023-02-10T05:01:33;100728.49;;;-0.88;52.57
33286;BME280;19656;50.096;20.014;2023-02-10T05:06:36;100725.46;;;-0.94;52.56
33286;BME280;19656;50.096;20.014;2023-02-10T05:11:40;100727.91;;;-0.93;52.72
33286;BME280;19656;50.096;20.014;2023-02-10T05:16:44;100734.11;;;-0.99;52.63
33286;BME280;19656;50.096;20.014;2023-02-10T05:21:47;100736.00;;;-1.02;52.94
33286;BME280;19656;50.096;20.014;2023-02-10T05:26:50;100743.48;;;-1.01;52.77
33286;BME280;19656;50.096;20.014;2023-02-10T05:31:54;100750.95;;;-1.03;52.85
33286;BME280;19656;50.096;20.014;2023-02-10T05:36:57;100754.92;;;-1.07;52.75
33286;BME280;19656;50.096;20.014;2023-02-10T05:42:00;100755.45;;;-1.06;52.74
33286;BME280;19656;50.096;20.014;2023-02-10T05:47:04;100749.98;;;-1.12;52.76
33286;BME280;19656;50.096;20.014;2023-02-10T05:52:07;100751.36;;;-1.12;53.02
33286;BME280;19656;50.096;20.014;2023-02-10T05:57:10;100754.02;;;-1.09;53.10
33286;BME280;19656;50.096;20.014;2023-02-10T06:02:13;100757.50;;;-1.08;52.94
33286;BME280;19656;50.096;20.014;2023-02-10T06:07:17;100762.18;;;-1.11;53.05
33286;BME280;19656;50.096;20.014;2023-02-10T06:12:20;100761.85;;;-1.09;53.15
33286;BME280;19656;50.096;20.014;2023-02-10T06:17:24;100765.27;;;-1.14;53.12
33286;BME280;19656;50.096;20.014;2023-02-10T06:22:29;100778.19;;;-1.24;53.39
33286;BME280;19656;50.096;20.014;2023-02-10T06:27:32;100780.11;;;-1.35;53.79
33286;BME280;19656;50.096;20.014;2023-02-10T06:32:35;100783.06;;;-1.36;53.74
33286;BME280;19656;50.096;20.014;2023-02-10T06:37:38;100779.48;;;-1.33;53.64
33286;BME280;19656;50.096;20.014;2023-02-10T06:42:41;100772.77;;;-1.27;53.62
33286;BME280;19656;50.096;20.014;2023-02-10T06:47:46;100772.20;;;-1.16;53.38
33286;BME280;19656;50.096;20.014;2023-02-10T06:52:49;100774.74;;;-1.09;53.48
33286;BME280;19656;50.096;20.014;2023-02-10T06:57:53;100781.45;;;-1.02;53.42
33286;BME280;19656;50.096;20.014;2023-02-10T07:02:56;100796.65;;;-0.99;53.25
33286;BME280;19656;50.096;20.014;2023-02-10T07:08:00;100792.48;;;-1.10;53.34
33286;BME280;19656;50.096;20.014;2023-02-10T07:13:05;100794.59;;;-1.10;53.45
33286;BME280;19656;50.096;20.014;2023-02-10T07:18:09;100798.19;;;-1.01;53.17
33286;BME280;19656;50.096;20.014;2023-02-10T07:23:12;100793.76;;;-0.94;52.94
33286;BME280;19656;50.096;20.014;2023-02-10T07:28:16;100786.83;;;-0.90;53.19
33286;BME280;19656;50.096;20.014;2023-02-10T07:33:19;100787.31;;;-0.80;53.10
33286;BME280;19656;50.096;20.014;2023-02-10T07:38:23;100791.41;;;-0.72;52.89
33286;BME280;19656;50.096;20.014;2023-02-10T07:43:26;100797.59;;;-0.65;52.58
33286;BME280;19656;50.096;20.014;2023-02-10T07:48:41;100802.95;;;-0.67;52.72
33286;BME280;19656;50.096;20.014;2023-02-10T07:53:45;100798.06;;;-0.70;52.86
33286;BME280;19656;50.096;20.014;2023-02-10T07:58:48;100806.78;;;-0.68;52.89
33286;BME280;19656;50.096;20.014;2023-02-10T08:03:52;100815.05;;;-0.61;52.99
33286;BME280;19656;50.096;20.014;2023-02-10T08:08:55;100818.66;;;-0.51;53.12
33286;BME280;19656;50.096;20.014;2023-02-10T08:14:00;100823.23;;;-0.32;52.70
33286;BME280;19656;50.096;20.014;2023-02-10T08:19:04;100835.30;;;-0.14;52.35
33286;BME280;19656;50.096;20.014;2023-02-10T08:24:08;100839.47;;;0.03;51.97
33286;BME280;19656;50.096;20.014;2023-02-10T08:29:11;100843.52;;;0.25;51.31
33286;BME280;19656;50.096;20.014;2023-02-10T08:34:17;100843.00;;;0.46;50.95
33286;BME280;19656;50.096;20.014;2023-02-10T08:39:20;100827.63;;;0.70;50.17
33286;BME280;19656;50.096;20.014;2023-02-10T08:44:24;100822.85;;;0.86;49.98
33286;BME280;19656;50.096;20.014;2023-02-10T08:49:27;100821.67;;;0.93;49.62
33286;BME280;19656;50.096;20.014;2023-02-10T08:54:31;100825.92;;;1.03;49.26
33286;BME280;19656;50.096;20.014;2023-02-10T08:59:35;100820.44;;;1.22;48.63
33286;BME280;19656;50.096;20.014;2023-02-10T09:04:39;100821.02;;;1.36;48.03
33286;BME280;19656;50.096;20.014;2023-02-10T09:09:43;100826.15;;;1.51;47.86
33286;BME280;19656;50.096;20.014;2023-02-10T09:14:46;100842.09;;;1.57;47.40
33286;BME280;19656;50.096;20.014;2023-02-10T09:19:50;100837.58;;;1.65;46.86
33286;BME280;19656;50.096;20.014;2023-02-10T09:24:53;100826.77;;;1.77;47.45
33286;BME280;19656;50.096;20.014;2023-02-10T09:29:56;100825.21;;;1.89;46.77
33286;BME280;19656;50.096;20.014;2023-02-10T09:35:00;100821.35;;;1.87;46.09
33286;BME280;19656;50.096;20.014;2023-02-10T09:40:03;100820.48;;;1.89;46.37
33286;BME280;19656;50.096;20.014;2023-02-10T09:45:13;100828.02;;;1.97;46.31
33286;BME280;19656;50.096;20.014;2023-02-10T09:55:47;100820.87;;;2.19;45.90
33286;BME280;19656;50.096;20.014;2023-02-10T10:00:58;100823.86;;;2.28;45.94
33286;BME280;19656;50.096;20.014;2023-02-10T10:11:45;100827.37;;;2.46;45.63
33286;BME280;19656;50.096;20.014;2023-02-10T10:17:36;100811.05;;;2.66;45.55
33286;BME280;19656;50.096;20.014;2023-02-10T10:33:00;100790.49;;;2.94;45.47
33286;BME280;19656;50.096;20.014;2023-02-10T10:38:20;100790.79;;;3.14;45.45
33286;BME280;19656;50.096;20.014;2023-02-10T10:43:28;100782.11;;;3.35;44.85
33286;BME280;19656;50.096;20.014;2023-02-10T10:48:34;100782.20;;;3.51;44.83
33286;BME280;19656;50.096;20.014;2023-02-10T10:53:41;100770.52;;;3.69;44.73
33286;BME280;19656;50.096;20.014;2023-02-10T10:58:47;100763.41;;;3.83;43.79
33286;BME280;19656;50.096;20.014;2023-02-10T11:03:50;100759.14;;;3.91;43.74
33286;BME280;19656;50.096;20.014;2023-02-10T11:09:05;100751.26;;;4.12;43.20
33286;BME280;19656;50.096;20.014;2023-02-10T11:14:15;100748.12;;;4.30;42.91
33286;BME280;19656;50.096;20.014;2023-02-10T11:19:23;100754.19;;;4.38;42.42
33286;BME280;19656;50.096;20.014;2023-02-10T11:24:28;100749.20;;;4.45;42.06
33286;BME280;19656;50.096;20.014;2023-02-10T11:29:39;100734.02;;;4.54;42.18
33286;BME280;19656;50.096;20.014;2023-02-10T11:34:45;100733.25;;;4.59;41.98
33286;BME280;19656;50.096;20.014;2023-02-10T11:39:52;100734.81;;;4.61;42.09
33286;BME280;19656;50.096;20.014;2023-02-10T11:45:01;100736.48;;;4.69;41.76
33286;BME280;19656;50.096;20.014;2023-02-10T11:50:26;100736.10;;;4.71;41.45
33286;BME280;19656;50.096;20.014;2023-02-10T11:55:42;100742.23;;;4.75;41.63
33286;BME280;19656;50.096;20.014;2023-02-10T12:00:56;100739.67;;;4.83;41.31
33286;BME280;19656;50.096;20.014;2023-02-10T12:06:30;100734.09;;;4.80;41.31
33286;BME280;19656;50.096;20.014;2023-02-10T12:54:39;100740.67;;;4.55;43.02
33286;BME280;19656;50.096;20.014;2023-02-10T13:00:03;100739.91;;;4.62;42.79
33286;BME280;19656;50.096;20.014;2023-02-10T13:05:14;100748.87;;;4.62;43.50
33286;BME280;19656;50.096;20.014;2023-02-10T13:15:45;100732.06;;;5.02;43.10
33286;BME280;19656;50.096;20.014;2023-02-10T13:21:19;100726.71;;;5.22;42.98
33286;BME280;19656;50.096;20.014;2023-02-10T13:37:22;100743.09;;;5.35;42.71
33286;BME280;19656;50.096;20.014;2023-02-10T13:42:36;100739.50;;;5.13;43.11
33286;BME280;19656;50.096;20.014;2023-02-10T13:53:03;100747.64;;;4.93;43.41
33286;BME280;19656;50.096;20.014;2023-02-10T14:08:44;100761.11;;;4.85;44.39
33286;BME280;19656;50.096;20.014;2023-02-10T14:14:24;100763.98;;;4.81;44.80
33286;BME280;19656;50.096;20.014;2023-02-10T14:19:33;100765.84;;;4.69;44.81
33286;BME280;19656;50.096;20.014;2023-02-10T14:24:43;100764.83;;;4.65;45.25
33286;BME280;19656;50.096;20.014;2023-02-10T14:29:59;100772.36;;;4.69;45.33
33286;BME280;19656;50.096;20.014;2023-02-10T14:35:16;100784.85;;;4.68;45.30
33286;BME280;19656;50.096;20.014;2023-02-10T14:40:32;100787.05;;;4.57;45.74
33286;BME280;19656;50.096;20.014;2023-02-10T14:45:37;100797.89;;;4.64;46.85
33286;BME280;19656;50.096;20.014;2023-02-10T14:50:44;100805.38;;;4.70;45.89
33286;BME280;19656;50.096;20.014;2023-02-10T14:55:58;100807.73;;;4.63;45.94
33286;BME280;19656;50.096;20.014;2023-02-10T15:06:15;100812.58;;;4.52;46.39
33286;BME280;19656;50.096;20.014;2023-02-10T15:11:24;100820.09;;;4.38;46.96
33286;BME280;19656;50.096;20.014;2023-02-10T15:16:48;100821.55;;;4.30;46.90
33286;BME280;19656;50.096;20.014;2023-02-10T15:21:53;100831.25;;;4.25;47.36
33286;BME280;19656;50.096;20.014;2023-02-10T15:27:18;100831.45;;;4.21;47.57
33286;BME280;19656;50.096;20.014;2023-02-10T15:32:22;100835.64;;;4.25;47.60
33286;BME280;19656;50.096;20.014;2023-02-10T15:37:25;100829.48;;;4.26;47.74
33286;BME280;19656;50.096;20.014;2023-02-10T15:42:35;100833.00;;;4.27;47.88
33286;BME280;19656;50.096;20.014;2023-02-10T15:47:46;100835.66;;;4.22;47.65
33286;BME280;19656;50.096;20.014;2023-02-10T15:52:52;100832.84;;;4.25;48.24
33286;BME280;19656;50.096;20.014;2023-02-10T15:57:58;100831.95;;;4.26;48.14
33286;BME280;19656;50.096;20.014;2023-02-10T16:03:04;100835.46;;;4.27;48.25
33286;BME280;19656;50.096;20.014;2023-02-10T16:08:19;100840.41;;;4.22;48.67
33286;BME280;19656;50.096;20.014;2023-02-10T16:13:23;100847.30;;;4.15;48.87
33286;BME280;19656;50.096;20.014;2023-02-10T16:18:30;100856.64;;;4.11;48.71
33286;BME280;19656;50.096;20.014;2023-02-10T16:23:35;100860.33;;;4.10;48.89
33286;BME280;19656;50.096;20.014;2023-02-10T16:28:40;100863.85;;;4.11;49.09
33286;BME280;19656;50.096;20.014;2023-02-10T16:33:45;100857.54;;;5.12;52.66
33286;BME280;19656;50.096;20.014;2023-02-10T16:38:49;100857.70;;;5.14;47.33
33286;BME280;19656;50.096;20.014;2023-02-10T16:43:54;100861.88;;;4.85;47.22
33286;BME280;19656;50.096;20.014;2023-02-10T16:48:57;100858.17;;;4.66;47.64
33286;BME280;19656;50.096;20.014;2023-02-10T16:54:01;100854.60;;;4.52;47.58
33286;BME280;19656;50.096;20.014;2023-02-10T16:59:17;100860.63;;;4.45;47.96
33286;BME280;19656;50.096;20.014;2023-02-10T17:04:21;100863.84;;;4.37;47.79
33286;BME280;19656;50.096;20.014;2023-02-10T17:09:25;100862.84;;;4.30;47.82
33286;BME280;19656;50.096;20.014;2023-02-10T17:14:31;100871.36;;;4.16;48.00
33286;BME280;19656;50.096;20.014;2023-02-10T17:19:35;100872.28;;;4.11;47.90
33286;BME280;19656;50.096;20.014;2023-02-10T17:24:38;100868.45;;;4.03;48.34
33286;BME280;19656;50.096;20.014;2023-02-10T17:29:43;100870.95;;;3.98;48.78
33286;BME280;19656;50.096;20.014;2023-02-10T17:34:51;100876.71;;;4.05;48.71
33286;BME280;19656;50.096;20.014;2023-02-10T17:40:02;100875.48;;;4.02;48.84
33286;BME280;19656;50.096;20.014;2023-02-10T17:45:13;100876.25;;;3.92;48.58
33286;BME280;19656;50.096;20.014;2023-02-10T17:50:19;100869.58;;;3.91;49.24
33286;BME280;19656;50.096;20.014;2023-02-10T17:55:24;100875.73;;;3.89;48.94
33286;BME280;19656;50.096;20.014;2023-02-10T18:00:28;100871.88;;;3.89;49.39
33286;BME280;19656;50.096;20.014;2023-02-10T18:05:31;100863.98;;;3.90;49.40
33286;BME280;19656;50.096;20.014;2023-02-10T18:10:37;100864.34;;;3.86;49.52
33286;BME280;19656;50.096;20.014;2023-02-10T18:15:41;100860.32;;;3.85;49.48
33286;BME280;19656;50.096;20.014;2023-02-10T18:20:44;100849.23;;;3.86;49.82
33286;BME280;19656;50.096;20.014;2023-02-10T18:25:48;100852.56;;;3.89;49.80
33286;BME280;19656;50.096;20.014;2023-02-10T18:30:53;100851.31;;;3.93;49.67
33286;BME280;19656;50.096;20.014;2023-02-10T18:35:57;100849.92;;;3.90;49.59
33286;BME280;19656;50.096;20.014;2023-02-10T18:41:01;100851.70;;;3.85;49.95
33286;BME280;19656;50.096;20.014;2023-02-10T18:46:05;100843.81;;;3.83;49.99
33286;BME280;19656;50.096;20.014;2023-02-10T18:51:10;100839.78;;;3.82;50.22
33286;BME280;19656;50.096;20.014;2023-02-10T18:56:17;100846.11;;;3.81;50.29
33286;BME280;19656;50.096;20.014;2023-02-10T19:01:23;100850.85;;;3.81;50.16
33286;BME280;19656;50.096;20.014;2023-02-10T19:06:28;100849.61;;;3.83;50.20
33286;BME280;19656;50.096;20.014;2023-02-10T19:11:34;100853.80;;;3.87;50.39
33286;BME280;19656;50.096;20.014;2023-02-10T19:16:40;100849.39;;;3.92;50.25
33286;BME280;19656;50.096;20.014;2023-02-10T19:21:43;100852.58;;;3.86;50.41
33286;BME280;19656;50.096;20.014;2023-02-10T19:26:47;100853.27;;;3.89;50.41
33286;BME280;19656;50.096;20.014;2023-02-10T19:31:50;100844.13;;;3.90;50.27
33286;BME280;19656;50.096;20.014;2023-02-10T19:36:54;100845.55;;;3.86;50.41
33286;BME280;19656;50.096;20.014;2023-02-10T19:41:57;100854.17;;;3.83;50.54
33286;BME280;19656;50.096;20.014;2023-02-10T19:47:00;100857.55;;;3.75;50.60
33286;BME280;19656;50.096;20.014;2023-02-10T19:52:04;100852.97;;;3.79;51.29
33286;BME280;19656;50.096;20.014;2023-02-10T19:57:07;100856.79;;;3.87;51.20
33286;BME280;19656;50.096;20.014;2023-02-10T20:02:11;100855.77;;;3.82;51.13
33286;BME280;19656;50.096;20.014;2023-02-10T20:07:17;100852.27;;;3.80;51.05
33286;BME280;19656;50.096;20.014;2023-02-10T20:12:21;100850.33;;;3.81;51.26
33286;BME280;19656;50.096;20.014;2023-02-10T20:17:24;100843.48;;;3.81;51.09
33286;BME280;19656;50.096;20.014;2023-02-10T20:22:27;100851.72;;;3.81;51.47
33286;BME280;19656;50.096;20.014;2023-02-10T20:27:31;100842.45;;;3.76;51.48
33286;BME280;19656;50.096;20.014;2023-02-10T20:32:35;100833.89;;;3.67;51.54
33286;BME280;19656;50.096;20.014;2023-02-10T20:37:38;100832.33;;;3.65;51.41
33286;BME280;19656;50.096;20.014;2023-02-10T20:42:41;100825.86;;;3.59;51.76
33286;BME280;19656;50.096;20.014;2023-02-10T20:47:46;100819.70;;;3.62;52.29
33286;BME280;19656;50.096;20.014;2023-02-10T20:52:51;100809.89;;;3.61;51.90
33286;BME280;19656;50.096;20.014;2023-02-10T20:57:54;100815.69;;;3.57;51.71
33286;BME280;19656;50.096;20.014;2023-02-10T21:02:57;100817.13;;;3.52;52.08
33286;BME280;19656;50.096;20.014;2023-02-10T21:08:03;100816.63;;;3.44;52.13
33286;BME280;19656;50.096;20.014;2023-02-10T21:13:06;100816.30;;;3.39;52.36
33286;BME280;19656;50.096;20.014;2023-02-10T21:18:10;100805.60;;;3.40;52.27
33286;BME280;19656;50.096;20.014;2023-02-10T21:23:13;100801.19;;;3.43;52.11
33286;BME280;19656;50.096;20.014;2023-02-10T21:28:16;100801.17;;;3.46;52.36
33286;BME280;19656;50.096;20.014;2023-02-10T21:33:20;100799.20;;;3.56;52.64
33286;BME280;19656;50.096;20.014;2023-02-10T21:38:25;100786.35;;;3.63;52.17
33286;BME280;19656;50.096;20.014;2023-02-10T21:43:28;100785.48;;;3.62;51.97
33286;BME280;19656;50.096;20.014;2023-02-10T21:48:32;100789.19;;;3.60;52.12
33286;BME280;19656;50.096;20.014;2023-02-10T21:53:35;100779.71;;;3.57;51.88
33286;BME280;19656;50.096;20.014;2023-02-10T21:58:39;100775.16;;;3.55;52.15
33286;BME280;19656;50.096;20.014;2023-02-10T22:03:42;100779.92;;;3.51;52.03
33286;BME280;19656;50.096;20.014;2023-02-10T22:08:46;100782.73;;;3.50;52.18
33286;BME280;19656;50.096;20.014;2023-02-10T22:13:50;100782.73;;;3.49;52.31
33286;BME280;19656;50.096;20.014;2023-02-10T22:18:54;100785.89;;;3.52;52.69
33286;BME280;19656;50.096;20.014;2023-02-10T22:24:10;100785.85;;;3.57;52.85
33286;BME280;19656;50.096;20.014;2023-02-10T22:29:15;100778.14;;;3.56;52.28
33286;BME280;19656;50.096;20.014;2023-02-10T22:34:20;100760.97;;;3.53;52.39
33286;BME280;19656;50.096;20.014;2023-02-10T22:39:24;100745.70;;;3.53;52.39
33286;BME280;19656;50.096;20.014;2023-02-10T22:44:27;100746.89;;;3.58;52.13
33286;BME280;19656;50.096;20.014;2023-02-10T22:49:33;100749.02;;;3.53;52.14
33286;BME280;19656;50.096;20.014;2023-02-10T22:54:36;100748.00;;;3.47;52.02
33286;BME280;19656;50.096;20.014;2023-02-10T22:59:39;100747.54;;;3.39;52.16
33286;BME280;19656;50.096;20.014;2023-02-10T23:04:44;100735.63;;;3.33;52.14
33286;BME280;19656;50.096;20.014;2023-02-10T23:09:48;100735.10;;;3.34;52.15
33286;BME280;19656;50.096;20.014;2023-02-10T23:14:53;100725.33;;;3.26;52.32
33286;BME280;19656;50.096;20.014;2023-02-10T23:19:56;100730.42;;;3.21;52.34
33286;BME280;19656;50.096;20.014;2023-02-10T23:25:00;100730.77;;;3.21;52.39
33286;BME280;19656;50.096;20.014;2023-02-10T23:30:04;100722.05;;;3.15;52.19
33286;BME280;19656;50.096;20.014;2023-02-10T23:35:08;100713.82;;;3.12;52.33
33286;BME280;19656;50.096;20.014;2023-02-10T23:40:11;100710.31;;;3.11;52.10
33286;BME280;19656;50.096;20.014;2023-02-10T23:45:15;100718.23;;;3.05;52.24
33286;BME280;19656;50.096;20.014;2023-02-10T23:50:18;100720.19;;;2.98;52.25
33286;BME280;19656;50.096;20.014;2023-02-10T23:55:21;100716.33;;;2.98;52.23
